sensor_id;sensor_type;location;lat;lon;timestamp;temperature;humidity
72277;SHT30;61204;49.980;8.358;2022-12-10T00:01:35;1.10;84.87
72277;SHT30;61204;49.980;8.358;2022-12-10T00:04:03;1.09;84.97
72277;SHT30;61204;49.980;8.358;2022-12-10T00:06:33;1.07;85.08
72277;SHT30;61204;49.980;8.358;2022-12-10T00:09:01;1.07;84.94
72277;SHT30;61204;49.980;8.358;2022-12-10T00:11:29;1.05;85.24
72277;SHT30;61204;49.980;8.358;2022-12-10T00:13:54;1.09;85.21
72277;SHT30;61204;49.980;8.358;2022-12-10T00:16:24;1.03;85.15
72277;SHT30;61204;49.980;8.358;2022-12-10T00:18:51;1.03;85.18
72277;SHT30;61204;49.980;8.358;2022-12-10T00:21:21;1.02;85.17
72277;SHT30;61204;49.980;8.358;2022-12-10T00:23:49;0.99;85.21
72277;SHT30;61204;49.980;8.358;2022-12-10T00:26:22;0.99;85.17
72277;SHT30;61204;49.980;8.358;2022-12-10T00:28:52;1.00;85.26
72277;SHT30;61204;49.980;8.358;2022-12-10T00:31:28;0.99;85.15
72277;SHT30;61204;49.980;8.358;2022-12-10T00:33:58;0.97;85.04
72277;SHT30;61204;49.980;8.358;2022-12-10T00:36:32;1.00;85.02
72277;SHT30;61204;49.980;8.358;2022-12-10T00:39:00;0.99;84.86
72277;SHT30;61204;49.980;8.358;2022-12-10T00:41:27;0.96;84.79
72277;SHT30;61204;49.980;8.358;2022-12-10T00:43:54;0.99;84.84
72277;SHT30;61204;49.980;8.358;2022-12-10T00:46:19;0.95;84.99
72277;SHT30;61204;49.980;8.358;2022-12-10T00:48:45;0.93;84.85
72277;SHT30;61204;49.980;8.358;2022-12-10T00:51:15;0.89;84.75
72277;SHT30;61204;49.980;8.358;2022-12-10T00:53:45;0.95;84.57
72277;SHT30;61204;49.980;8.358;2022-12-10T00:56:14;0.92;84.76
72277;SHT30;61204;49.980;8.358;2022-12-10T00:58:41;0.91;84.91
72277;SHT30;61204;49.980;8.358;2022-12-10T01:01:37;0.88;84.95
72277;SHT30;61204;49.980;8.358;2022-12-10T01:04:10;0.88;84.71
72277;SHT30;61204;49.980;8.358;2022-12-10T01:06:51;0.85;84.89
72277;SHT30;61204;49.980;8.358;2022-12-10T01:09:22;0.85;84.96
72277;SHT30;61204;49.980;8.358;2022-12-10T01:11:52;0.81;84.96
72277;SHT30;61204;49.980;8.358;2022-12-10T01:14:27;0.84;85.01
72277;SHT30;61204;49.980;8.358;2022-12-10T01:16:59;0.82;84.91
72277;SHT30;61204;49.980;8.358;2022-12-10T01:19:28;0.81;84.74
72277;SHT30;61204;49.980;8.358;2022-12-10T01:21:56;0.81;84.71
72277;SHT30;61204;49.980;8.358;2022-12-10T01:24:25;0.78;84.78
72277;SHT30;61204;49.980;8.358;2022-12-10T01:26:52;0.82;84.89
72277;SHT30;61204;49.980;8.358;2022-12-10T01:29:18;0.81;84.95
72277;SHT30;61204;49.980;8.358;2022-12-10T01:31:44;0.79;85.14
72277;SHT30;61204;49.980;8.358;2022-12-10T01:34:12;0.78;85.03
72277;SHT30;61204;49.980;8.358;2022-12-10T01:36:42;0.77;85.01
72277;SHT30;61204;49.980;8.358;2022-12-10T01:39:12;0.74;85.17
72277;SHT30;61204;49.980;8.358;2022-12-10T01:41:58;0.77;85.24
72277;SHT30;61204;49.980;8.358;2022-12-10T01:46:57;0.75;85.23
72277;SHT30;61204;49.980;8.358;2022-12-10T01:49:36;0.69;85.23
72277;SHT30;61204;49.980;8.358;2022-12-10T01:52:10;0.71;85.23
72277;SHT30;61204;49.980;8.358;2022-12-10T01:54:41;0.71;85.15
72277;SHT30;61204;49.980;8.358;2022-12-10T01:57:27;0.79;84.88
72277;SHT30;61204;49.980;8.358;2022-12-10T01:59:58;0.74;84.63
72277;SHT30;61204;49.980;8.358;2022-12-10T02:02:47;0.72;84.43
72277;SHT30;61204;49.980;8.358;2022-12-10T02:05:34;0.67;84.68
72277;SHT30;61204;49.980;8.358;2022-12-10T02:08:34;0.67;84.76
72277;SHT30;61204;49.980;8.358;2022-12-10T02:11:24;0.62;84.44
72277;SHT30;61204;49.980;8.358;2022-12-10T02:14:20;0.64;84.53
72277;SHT30;61204;49.980;8.358;2022-12-10T02:17:11;0.60;84.58
72277;SHT30;61204;49.980;8.358;2022-12-10T02:20:00;0.64;84.29
72277;SHT30;61204;49.980;8.358;2022-12-10T02:22:48;0.62;84.27
72277;SHT30;61204;49.980;8.358;2022-12-10T02:25:25;0.61;84.33
72277;SHT30;61204;49.980;8.358;2022-12-10T02:30:42;0.61;84.21
72277;SHT30;61204;49.980;8.358;2022-12-10T02:33:13;0.57;84.10
72277;SHT30;61204;49.980;8.358;2022-12-10T02:35:42;0.57;84.53
72277;SHT30;61204;49.980;8.358;2022-12-10T02:38:37;0.60;84.13
72277;SHT30;61204;49.980;8.358;2022-12-10T02:41:14;0.50;84.25
72277;SHT30;61204;49.980;8.358;2022-12-10T02:43:46;0.50;84.24
72277;SHT30;61204;49.980;8.358;2022-12-10T02:46:16;0.54;84.22
72277;SHT30;61204;49.980;8.358;2022-12-10T02:48:42;0.48;84.27
72277;SHT30;61204;49.980;8.358;2022-12-10T02:51:10;0.46;84.32
72277;SHT30;61204;49.980;8.358;2022-12-10T02:53:44;0.47;84.32
72277;SHT30;61204;49.980;8.358;2022-12-10T02:59:33;0.39;84.47
72277;SHT30;61204;49.980;8.358;2022-12-10T03:09:00;0.31;84.38
72277;SHT30;61204;49.980;8.358;2022-12-10T03:11:31;0.30;84.41
72277;SHT30;61204;49.980;8.358;2022-12-10T03:14:08;0.22;84.34
72277;SHT30;61204;49.980;8.358;2022-12-10T03:16:49;0.24;84.66
72277;SHT30;61204;49.980;8.358;2022-12-10T03:19:30;0.26;84.38
72277;SHT30;61204;49.980;8.358;2022-12-10T03:22:03;0.20;84.35
72277;SHT30;61204;49.980;8.358;2022-12-10T03:24:35;0.19;84.59
72277;SHT30;61204;49.980;8.358;2022-12-10T03:27:05;0.16;84.68
72277;SHT30;61204;49.980;8.358;2022-12-10T03:29:45;0.16;84.75
72277;SHT30;61204;49.980;8.358;2022-12-10T03:32:15;0.16;84.50
72277;SHT30;61204;49.980;8.358;2022-12-10T03:34:44;0.16;84.64
72277;SHT30;61204;49.980;8.358;2022-12-10T03:37:12;0.12;84.48
72277;SHT30;61204;49.980;8.358;2022-12-10T03:39:41;0.09;84.68
72277;SHT30;61204;49.980;8.358;2022-12-10T03:42:08;0.06;84.91
72277;SHT30;61204;49.980;8.358;2022-12-10T03:44:37;0.03;85.00
72277;SHT30;61204;49.980;8.358;2022-12-10T03:47:09;-0.04;84.98
72277;SHT30;61204;49.980;8.358;2022-12-10T03:49:38;-0.02;85.13
72277;SHT30;61204;49.980;8.358;2022-12-10T03:52:04;-0.06;85.16
72277;SHT30;61204;49.980;8.358;2022-12-10T03:54:30;-0.08;85.20
72277;SHT30;61204;49.980;8.358;2022-12-10T03:56:55;-0.12;85.55
72277;SHT30;61204;49.980;8.358;2022-12-10T03:59:21;-0.15;85.51
72277;SHT30;61204;49.980;8.358;2022-12-10T04:01:47;-0.15;85.48
72277;SHT30;61204;49.980;8.358;2022-12-10T04:04:13;-0.19;85.39
72277;SHT30;61204;49.980;8.358;2022-12-10T04:06:40;-0.14;85.03
72277;SHT30;61204;49.980;8.358;2022-12-10T04:09:10;-0.15;85.03
72277;SHT30;61204;49.980;8.358;2022-12-10T04:11:36;-0.21;85.39
72277;SHT30;61204;49.980;8.358;2022-12-10T04:14:02;-0.23;85.11
72277;SHT30;61204;49.980;8.358;2022-12-10T04:16:47;-0.29;85.54
72277;SHT30;61204;49.980;8.358;2022-12-10T04:19:16;-0.33;85.77
72277;SHT30;61204;49.980;8.358;2022-12-10T04:21:45;-0.32;85.59
72277;SHT30;61204;49.980;8.358;2022-12-10T04:24:33;-0.30;85.29
72277;SHT30;61204;49.980;8.358;2022-12-10T04:27:27;-0.39;85.68
72277;SHT30;61204;49.980;8.358;2022-12-10T04:29:57;-0.43;86.07
72277;SHT30;61204;49.980;8.358;2022-12-10T04:32:27;-0.48;86.12
72277;SHT30;61204;49.980;8.358;2022-12-10T04:34:54;-0.46;86.22
72277;SHT30;61204;49.980;8.358;2022-12-10T04:37:22;-0.53;86.34
72277;SHT30;61204;49.980;8.358;2022-12-10T04:39:52;-0.53;86.57
72277;SHT30;61204;49.980;8.358;2022-12-10T04:42:20;-0.54;86.41
72277;SHT30;61204;49.980;8.358;2022-12-10T04:44:46;-0.57;86.73
72277;SHT30;61204;49.980;8.358;2022-12-10T04:47:12;-0.66;86.81
72277;SHT30;61204;49.980;8.358;2022-12-10T04:49:38;-0.66;86.76
72277;SHT30;61204;49.980;8.358;2022-12-10T04:52:06;-0.67;86.66
72277;SHT30;61204;49.980;8.358;2022-12-10T04:54:33;-0.76;87.30
72277;SHT30;61204;49.980;8.358;2022-12-10T04:56:59;-0.76;87.12
72277;SHT30;61204;49.980;8.358;2022-12-10T04:59:24;-0.80;87.37
72277;SHT30;61204;49.980;8.358;2022-12-10T05:01:50;-0.83;87.31
72277;SHT30;61204;49.980;8.358;2022-12-10T05:04:18;-0.80;87.30
72277;SHT30;61204;49.980;8.358;2022-12-10T05:06:48;-0.78;87.38
72277;SHT30;61204;49.980;8.358;2022-12-10T05:09:16;-0.83;87.30
72277;SHT30;61204;49.980;8.358;2022-12-10T05:11:42;-0.83;87.35
72277;SHT30;61204;49.980;8.358;2022-12-10T05:14:14;-0.89;87.44
72277;SHT30;61204;49.980;8.358;2022-12-10T05:16:40;-0.94;87.70
72277;SHT30;61204;49.980;8.358;2022-12-10T05:19:08;-0.98;87.79
72277;SHT30;61204;49.980;8.358;2022-12-10T05:21:34;-0.98;87.78
72277;SHT30;61204;49.980;8.358;2022-12-10T05:24:18;-1.05;87.88
72277;SHT30;61204;49.980;8.358;2022-12-10T05:26:44;-1.11;88.00
72277;SHT30;61204;49.980;8.358;2022-12-10T05:29:12;-1.13;87.93
72277;SHT30;61204;49.980;8.358;2022-12-10T05:31:38;-1.13;88.10
72277;SHT30;61204;49.980;8.358;2022-12-10T05:34:04;-1.11;87.96
72277;SHT30;61204;49.980;8.358;2022-12-10T05:36:31;-1.11;87.95
72277;SHT30;61204;49.980;8.358;2022-12-10T05:38:58;-1.13;87.97
72277;SHT30;61204;49.980;8.358;2022-12-10T05:41:28;-1.13;88.29
72277;SHT30;61204;49.980;8.358;2022-12-10T05:43:57;-1.19;88.29
72277;SHT30;61204;49.980;8.358;2022-12-10T05:46:30;-1.20;88.36
72277;SHT30;61204;49.980;8.358;2022-12-10T05:48:59;-1.25;88.35
72277;SHT30;61204;49.980;8.358;2022-12-10T05:51:32;-1.32;88.56
72277;SHT30;61204;49.980;8.358;2022-12-10T05:54:03;-1.40;89.07
72277;SHT30;61204;49.980;8.358;2022-12-10T05:56:30;-1.35;89.19
72277;SHT30;61204;49.980;8.358;2022-12-10T05:59:01;-1.36;89.19
72277;SHT30;61204;49.980;8.358;2022-12-10T06:01:34;-1.36;88.98
72277;SHT30;61204;49.980;8.358;2022-12-10T06:04:02;-1.38;89.03
72277;SHT30;61204;49.980;8.358;2022-12-10T06:06:33;-1.42;88.93
72277;SHT30;61204;49.980;8.358;2022-12-10T06:09:01;-1.46;88.90
72277;SHT30;61204;49.980;8.358;2022-12-10T06:11:28;-1.60;88.98
72277;SHT30;61204;49.980;8.358;2022-12-10T06:13:56;-1.51;89.38
72277;SHT30;61204;49.980;8.358;2022-12-10T06:16:24;-1.50;88.88
72277;SHT30;61204;49.980;8.358;2022-12-10T06:18:52;-1.59;89.33
72277;SHT30;61204;49.980;8.358;2022-12-10T06:21:19;-1.63;89.35
72277;SHT30;61204;49.980;8.358;2022-12-10T06:23:47;-1.74;88.94
72277;SHT30;61204;49.980;8.358;2022-12-10T06:26:20;-1.78;89.77
72277;SHT30;61204;49.980;8.358;2022-12-10T06:28:48;-1.75;89.49
72277;SHT30;61204;49.980;8.358;2022-12-10T06:31:15;-1.72;89.20
72277;SHT30;61204;49.980;8.358;2022-12-10T06:33:42;-1.87;89.36
72277;SHT30;61204;49.980;8.358;2022-12-10T06:36:10;-1.88;90.28
72277;SHT30;61204;49.980;8.358;2022-12-10T06:38:38;-1.89;90.22
72277;SHT30;61204;49.980;8.358;2022-12-10T06:41:05;-1.96;90.48
72277;SHT30;61204;49.980;8.358;2022-12-10T06:43:33;-2.01;90.60
72277;SHT30;61204;49.980;8.358;2022-12-10T06:46:00;-2.07;90.12
72277;SHT30;61204;49.980;8.358;2022-12-10T06:48:30;-2.10;90.70
72277;SHT30;61204;49.980;8.358;2022-12-10T06:50:55;-2.10;91.02
72277;SHT30;61204;49.980;8.358;2022-12-10T06:53:21;-2.07;91.15
72277;SHT30;61204;49.980;8.358;2022-12-10T06:55:46;-2.16;91.13
72277;SHT30;61204;49.980;8.358;2022-12-10T06:58:12;-2.10;91.37
72277;SHT30;61204;49.980;8.358;2022-12-10T07:00:37;-2.15;91.51
72277;SHT30;61204;49.980;8.358;2022-12-10T07:03:03;-2.05;91.22
72277;SHT30;61204;49.980;8.358;2022-12-10T07:05:29;-2.09;90.94
72277;SHT30;61204;49.980;8.358;2022-12-10T07:07:55;-2.05;90.96
72277;SHT30;61204;49.980;8.358;2022-12-10T07:10:21;-1.99;91.18
72277;SHT30;61204;49.980;8.358;2022-12-10T07:12:47;-1.96;91.10
72277;SHT30;61204;49.980;8.358;2022-12-10T07:15:13;-2.02;91.36
72277;SHT30;61204;49.980;8.358;2022-12-10T07:17:38;-2.03;91.88
72277;SHT30;61204;49.980;8.358;2022-12-10T07:20:05;-1.99;91.73
72277;SHT30;61204;49.980;8.358;2022-12-10T07:22:31;-1.98;91.94
72277;SHT30;61204;49.980;8.358;2022-12-10T07:24:56;-1.95;91.90
72277;SHT30;61204;49.980;8.358;2022-12-10T07:27:22;-1.87;91.96
72277;SHT30;61204;49.980;8.358;2022-12-10T07:29:47;-1.84;91.79
72277;SHT30;61204;49.980;8.358;2022-12-10T07:32:13;-1.84;91.92
72277;SHT30;61204;49.980;8.358;2022-12-10T07:34:38;-1.79;91.99
72277;SHT30;61204;49.980;8.358;2022-12-10T07:37:04;-1.78;91.84
72277;SHT30;61204;49.980;8.358;2022-12-10T07:39:30;-1.75;91.28
72277;SHT30;61204;49.980;8.358;2022-12-10T07:41:55;-1.66;91.55
72277;SHT30;61204;49.980;8.358;2022-12-10T07:44:24;-1.51;91.43
72277;SHT30;61204;49.980;8.358;2022-12-10T07:46:53;-1.43;91.37
72277;SHT30;61204;49.980;8.358;2022-12-10T07:49:20;-1.38;91.09
72277;SHT30;61204;49.980;8.358;2022-12-10T07:51:50;-1.28;90.85
72277;SHT30;61204;49.980;8.358;2022-12-10T07:54:17;-1.23;90.71
72277;SHT30;61204;49.980;8.358;2022-12-10T07:56:43;-1.15;90.67
72277;SHT30;61204;49.980;8.358;2022-12-10T07:59:09;-1.08;90.52
72277;SHT30;61204;49.980;8.358;2022-12-10T08:01:35;-1.04;90.42
72277;SHT30;61204;49.980;8.358;2022-12-10T08:04:01;-0.99;90.52
72277;SHT30;61204;49.980;8.358;2022-12-10T08:06:28;-0.94;90.50
72277;SHT30;61204;49.980;8.358;2022-12-10T08:08:55;-0.76;90.41
72277;SHT30;61204;49.980;8.358;2022-12-10T08:11:23;-0.56;89.50
72277;SHT30;61204;49.980;8.358;2022-12-10T08:13:50;-0.46;88.54
72277;SHT30;61204;49.980;8.358;2022-12-10T08:16:20;-0.48;88.52
72277;SHT30;61204;49.980;8.358;2022-12-10T08:18:53;-0.43;88.65
72277;SHT30;61204;49.980;8.358;2022-12-10T08:21:23;-0.36;88.46
72277;SHT30;61204;49.980;8.358;2022-12-10T08:23:50;-0.19;87.98
72277;SHT30;61204;49.980;8.358;2022-12-10T08:26:23;-0.18;87.99
72277;SHT30;61204;49.980;8.358;2022-12-10T08:28:51;-0.19;88.23
72277;SHT30;61204;49.980;8.358;2022-12-10T08:31:21;-0.14;88.12
72277;SHT30;61204;49.980;8.358;2022-12-10T08:33:47;0.06;87.23
72277;SHT30;61204;49.980;8.358;2022-12-10T08:36:15;0.13;86.90
72277;SHT30;61204;49.980;8.358;2022-12-10T08:38:43;0.12;87.04
72277;SHT30;61204;49.980;8.358;2022-12-10T08:41:16;0.17;86.96
72277;SHT30;61204;49.980;8.358;2022-12-10T08:43:44;0.23;86.95
72277;SHT30;61204;49.980;8.358;2022-12-10T08:46:12;0.24;87.02
72277;SHT30;61204;49.980;8.358;2022-12-10T08:48:41;0.36;86.84
72277;SHT30;61204;49.980;8.358;2022-12-10T08:51:10;0.56;86.21
72277;SHT30;61204;49.980;8.358;2022-12-10T08:53:38;0.54;86.12
72277;SHT30;61204;49.980;8.358;2022-12-10T08:56:04;0.53;86.09
72277;SHT30;61204;49.980;8.358;2022-12-10T08:58:29;0.56;86.47
72277;SHT30;61204;49.980;8.358;2022-12-10T09:00:55;0.67;86.33
72277;SHT30;61204;49.980;8.358;2022-12-10T09:03:21;0.71;86.33
72277;SHT30;61204;49.980;8.358;2022-12-10T09:05:47;0.82;86.14
72277;SHT30;61204;49.980;8.358;2022-12-10T09:08:13;0.84;86.44
72277;SHT30;61204;49.980;8.358;2022-12-10T09:10:40;0.99;86.27
72277;SHT30;61204;49.980;8.358;2022-12-10T09:13:06;1.02;86.09
72277;SHT30;61204;49.980;8.358;2022-12-10T09:15:32;1.12;85.75
72277;SHT30;61204;49.980;8.358;2022-12-10T09:17:58;1.24;85.37
72277;SHT30;61204;49.980;8.358;2022-12-10T09:20:24;1.34;85.80
72277;SHT30;61204;49.980;8.358;2022-12-10T09:22:49;1.43;84.32
72277;SHT30;61204;49.980;8.358;2022-12-10T09:25:15;1.47;83.45
72277;SHT30;61204;49.980;8.358;2022-12-10T09:27:43;1.57;83.06
72277;SHT30;61204;49.980;8.358;2022-12-10T09:30:11;1.64;83.18
72277;SHT30;61204;49.980;8.358;2022-12-10T09:32:37;1.59;82.75
72277;SHT30;61204;49.980;8.358;2022-12-10T09:35:03;1.69;82.36
72277;SHT30;61204;49.980;8.358;2022-12-10T09:37:29;1.82;81.78
72277;SHT30;61204;49.980;8.358;2022-12-10T09:39:55;1.82;81.71
72277;SHT30;61204;49.980;8.358;2022-12-10T09:42:56;1.79;82.03
72277;SHT30;61204;49.980;8.358;2022-12-10T09:46:08;1.96;81.41
72277;SHT30;61204;49.980;8.358;2022-12-10T09:51:39;2.16;80.50
72277;SHT30;61204;49.980;8.358;2022-12-10T09:56:55;2.42;78.54
72277;SHT30;61204;49.980;8.358;2022-12-10T09:59:38;2.64;77.96
72277;SHT30;61204;49.980;8.358;2022-12-10T10:02:26;2.75;77.52
72277;SHT30;61204;49.980;8.358;2022-12-10T10:05:11;2.78;77.02
72277;SHT30;61204;49.980;8.358;2022-12-10T10:07:51;2.89;76.63
72277;SHT30;61204;49.980;8.358;2022-12-10T10:10:30;3.14;75.96
72277;SHT30;61204;49.980;8.358;2022-12-10T10:13:29;3.34;75.16
72277;SHT30;61204;49.980;8.358;2022-12-10T10:16:25;4.03;73.42
72277;SHT30;61204;49.980;8.358;2022-12-10T10:19:13;4.54;71.37
72277;SHT30;61204;49.980;8.358;2022-12-10T10:21:58;4.34;72.26
72277;SHT30;61204;49.980;8.358;2022-12-10T10:24:45;3.96;71.71
72277;SHT30;61204;49.980;8.358;2022-12-10T10:27:29;3.76;72.59
72277;SHT30;61204;49.980;8.358;2022-12-10T10:30:01;3.72;73.53
72277;SHT30;61204;49.980;8.358;2022-12-10T10:32:55;3.31;73.29
72277;SHT30;61204;49.980;8.358;2022-12-10T10:35:31;3.23;73.98
72277;SHT30;61204;49.980;8.358;2022-12-10T10:38:06;3.06;74.17
72277;SHT30;61204;49.980;8.358;2022-12-10T10:40:50;3.00;74.72
72277;SHT30;61204;49.980;8.358;2022-12-10T10:43:38;3.02;74.88
72277;SHT30;61204;49.980;8.358;2022-12-10T10:46:14;2.95;74.37
72277;SHT30;61204;49.980;8.358;2022-12-10T10:48:44;2.88;75.02
72277;SHT30;61204;49.980;8.358;2022-12-10T10:51:15;2.84;75.15
72277;SHT30;61204;49.980;8.358;2022-12-10T10:53:55;2.91;74.76
72277;SHT30;61204;49.980;8.358;2022-12-10T10:56:27;2.76;74.60
72277;SHT30;61204;49.980;8.358;2022-12-10T10:59:04;2.58;75.08
72277;SHT30;61204;49.980;8.358;2022-12-10T11:01:54;2.54;75.67
72277;SHT30;61204;49.980;8.358;2022-12-10T11:05:07;2.71;75.35
72277;SHT30;61204;49.980;8.358;2022-12-10T11:07:41;2.82;75.25
72277;SHT30;61204;49.980;8.358;2022-12-10T11:10:36;3.13;74.22
72277;SHT30;61204;49.980;8.358;2022-12-10T11:13:06;3.47;73.01
72277;SHT30;61204;49.980;8.358;2022-12-10T11:15:44;3.89;71.56
72277;SHT30;61204;49.980;8.358;2022-12-10T11:18:58;4.75;68.45
72277;SHT30;61204;49.980;8.358;2022-12-10T11:21:32;5.56;66.68
72277;SHT30;61204;49.980;8.358;2022-12-10T11:24:05;6.00;65.28
72277;SHT30;61204;49.980;8.358;2022-12-10T11:27:04;6.73;62.84
72277;SHT30;61204;49.980;8.358;2022-12-10T11:30:06;6.83;61.46
72277;SHT30;61204;49.980;8.358;2022-12-10T11:33:01;7.54;62.00
72277;SHT30;61204;49.980;8.358;2022-12-10T11:39:25;8.63;55.83
72277;SHT30;61204;49.980;8.358;2022-12-10T11:45:37;10.31;52.83
72277;SHT30;61204;49.980;8.358;2022-12-10T11:48:29;10.00;50.22
72277;SHT30;61204;49.980;8.358;2022-12-10T11:51:08;9.22;52.53
72277;SHT30;61204;49.980;8.358;2022-12-10T11:54:14;8.73;53.43
72277;SHT30;61204;49.980;8.358;2022-12-10T11:57:21;8.08;56.37
72277;SHT30;61204;49.980;8.358;2022-12-10T12:00:38;8.38;55.19
72277;SHT30;61204;49.980;8.358;2022-12-10T12:09:35;8.25;54.89
72277;SHT30;61204;49.980;8.358;2022-12-10T12:12:58;7.79;55.37
72277;SHT30;61204;49.980;8.358;2022-12-10T12:15:47;7.62;57.06
72277;SHT30;61204;49.980;8.358;2022-12-10T12:18:26;7.51;56.80
72277;SHT30;61204;49.980;8.358;2022-12-10T12:21:14;7.28;57.96
72277;SHT30;61204;49.980;8.358;2022-12-10T12:24:04;7.11;59.18
72277;SHT30;61204;49.980;8.358;2022-12-10T12:26:45;6.96;58.38
72277;SHT30;61204;49.980;8.358;2022-12-10T12:29:30;6.87;60.56
72277;SHT30;61204;49.980;8.358;2022-12-10T12:32:17;6.61;60.30
72277;SHT30;61204;49.980;8.358;2022-12-10T12:34:56;6.41;61.21
72277;SHT30;61204;49.980;8.358;2022-12-10T12:37:49;6.31;60.90
72277;SHT30;61204;49.980;8.358;2022-12-10T12:40:34;6.13;60.76
72277;SHT30;61204;49.980;8.358;2022-12-10T12:43:16;6.10;62.13
72277;SHT30;61204;49.980;8.358;2022-12-10T12:45:49;5.99;63.11
72277;SHT30;61204;49.980;8.358;2022-12-10T12:48:44;5.79;62.37
72277;SHT30;61204;49.980;8.358;2022-12-10T12:51:25;5.59;63.89
72277;SHT30;61204;49.980;8.358;2022-12-10T12:53:54;5.52;64.50
72277;SHT30;61204;49.980;8.358;2022-12-10T12:59:36;4.89;65.51
72277;SHT30;61204;49.980;8.358;2022-12-10T13:02:25;4.67;66.27
72277;SHT30;61204;49.980;8.358;2022-12-10T13:05:26;4.54;67.35
72277;SHT30;61204;49.980;8.358;2022-12-10T13:10:51;6.18;62.13
72277;SHT30;61204;49.980;8.358;2022-12-10T13:13:38;7.14;59.08
72277;SHT30;61204;49.980;8.358;2022-12-10T13:22:08;8.17;55.11
72277;SHT30;61204;49.980;8.358;2022-12-10T13:40:41;5.54;61.88
72277;SHT30;61204;49.980;8.358;2022-12-10T13:49:03;4.11;66.93
72277;SHT30;61204;49.980;8.358;2022-12-10T13:51:58;3.93;67.87
72277;SHT30;61204;49.980;8.358;2022-12-10T13:58:26;3.64;68.58
72277;SHT30;61204;49.980;8.358;2022-12-10T14:01:52;3.55;68.42
72277;SHT30;61204;49.980;8.358;2022-12-10T14:07:43;3.42;69.50
72277;SHT30;61204;49.980;8.358;2022-12-10T14:10:17;3.37;69.89
72277;SHT30;61204;49.980;8.358;2022-12-10T14:12:46;3.37;69.67
72277;SHT30;61204;49.980;8.358;2022-12-10T14:15:22;3.35;70.33
72277;SHT30;61204;49.980;8.358;2022-12-10T14:18:00;3.40;70.04
72277;SHT30;61204;49.980;8.358;2022-12-10T14:20:32;3.20;70.78
72277;SHT30;61204;49.980;8.358;2022-12-10T14:23:05;3.58;69.70
72277;SHT30;61204;49.980;8.358;2022-12-10T14:26:12;4.09;67.67
72277;SHT30;61204;49.980;8.358;2022-12-10T14:28:58;4.47;66.35
72277;SHT30;61204;49.980;8.358;2022-12-10T14:31:44;4.62;65.32
72277;SHT30;61204;49.980;8.358;2022-12-10T14:34:18;4.76;65.36
72277;SHT30;61204;49.980;8.358;2022-12-10T14:36:54;4.86;64.06
72277;SHT30;61204;49.980;8.358;2022-12-10T14:39:27;4.67;64.30
72277;SHT30;61204;49.980;8.358;2022-12-10T14:41:59;4.76;64.43
72277;SHT30;61204;49.980;8.358;2022-12-10T14:44:28;4.82;63.82
72277;SHT30;61204;49.980;8.358;2022-12-10T14:49:49;4.44;65.10
72277;SHT30;61204;49.980;8.358;2022-12-10T14:52:21;4.41;65.02
72277;SHT30;61204;49.980;8.358;2022-12-10T14:54:58;4.21;66.20
72277;SHT30;61204;49.980;8.358;2022-12-10T14:57:35;4.06;66.38
72277;SHT30;61204;49.980;8.358;2022-12-10T15:00:13;3.82;67.18
72277;SHT30;61204;49.980;8.358;2022-12-10T15:02:47;3.33;68.75
72277;SHT30;61204;49.980;8.358;2022-12-10T15:05:21;3.00;70.14
72277;SHT30;61204;49.980;8.358;2022-12-10T15:10:33;2.62;71.09
72277;SHT30;61204;49.980;8.358;2022-12-10T15:13:03;2.41;71.65
72277;SHT30;61204;49.980;8.358;2022-12-10T15:15:40;2.26;72.52
72277;SHT30;61204;49.980;8.358;2022-12-10T15:20:44;1.81;73.97
72277;SHT30;61204;49.980;8.358;2022-12-10T15:26:18;1.57;75.10
72277;SHT30;61204;49.980;8.358;2022-12-10T15:28:51;1.47;75.46
72277;SHT30;61204;49.980;8.358;2022-12-10T15:34:08;1.40;75.55
72277;SHT30;61204;49.980;8.358;2022-12-10T15:36:54;1.27;76.26
72277;SHT30;61204;49.980;8.358;2022-12-10T15:39:28;1.19;76.57
72277;SHT30;61204;49.980;8.358;2022-12-10T15:42:06;1.07;76.74
72277;SHT30;61204;49.980;8.358;2022-12-10T15:44:41;0.99;77.44
72277;SHT30;61204;49.980;8.358;2022-12-10T15:47:22;0.92;77.81
72277;SHT30;61204;49.980;8.358;2022-12-10T15:49:56;0.86;78.05
72277;SHT30;61204;49.980;8.358;2022-12-10T15:52:28;0.71;78.50
72277;SHT30;61204;49.980;8.358;2022-12-10T15:54:56;0.62;78.71
72277;SHT30;61204;49.980;8.358;2022-12-10T15:57:32;0.51;79.29
72277;SHT30;61204;49.980;8.358;2022-12-10T16:00:11;0.44;79.58
72277;SHT30;61204;49.980;8.358;2022-12-10T16:02:57;0.39;79.61
72277;SHT30;61204;49.980;8.358;2022-12-10T16:05:34;0.27;79.97
72277;SHT30;61204;49.980;8.358;2022-12-10T16:08:19;0.19;80.28
72277;SHT30;61204;49.980;8.358;2022-12-10T16:10:52;0.09;80.68
72277;SHT30;61204;49.980;8.358;2022-12-10T16:13:26;-0.04;81.36
72277;SHT30;61204;49.980;8.358;2022-12-10T16:15:59;-0.09;81.33
72277;SHT30;61204;49.980;8.358;2022-12-10T16:18:28;-0.16;81.72
72277;SHT30;61204;49.980;8.358;2022-12-10T16:20:53;-0.25;82.29
72277;SHT30;61204;49.980;8.358;2022-12-10T16:23:19;-0.29;82.26
72277;SHT30;61204;49.980;8.358;2022-12-10T16:25:45;-0.42;82.33
72277;SHT30;61204;49.980;8.358;2022-12-10T16:28:16;-0.49;83.05
72277;SHT30;61204;49.980;8.358;2022-12-10T16:30:49;-0.52;83.00
72277;SHT30;61204;49.980;8.358;2022-12-10T16:33:19;-0.61;83.61
72277;SHT30;61204;49.980;8.358;2022-12-10T16:35:47;-0.68;84.06
72277;SHT30;61204;49.980;8.358;2022-12-10T16:38:14;-0.70;84.04
72277;SHT30;61204;49.980;8.358;2022-12-10T16:40:43;-0.78;84.14
72277;SHT30;61204;49.980;8.358;2022-12-10T16:43:22;-0.83;84.62
72277;SHT30;61204;49.980;8.358;2022-12-10T16:45:51;-0.85;84.66
72277;SHT30;61204;49.980;8.358;2022-12-10T16:48:18;-0.92;84.70
72277;SHT30;61204;49.980;8.358;2022-12-10T16:50:45;-0.99;84.80
72277;SHT30;61204;49.980;8.358;2022-12-10T16:53:22;-1.04;85.22
72277;SHT30;61204;49.980;8.358;2022-12-10T16:55:55;-1.06;85.25
72277;SHT30;61204;49.980;8.358;2022-12-10T16:58:22;-1.13;85.41
72277;SHT30;61204;49.980;8.358;2022-12-10T17:00:53;-1.23;85.69
72277;SHT30;61204;49.980;8.358;2022-12-10T17:03:24;-1.29;85.82
72277;SHT30;61204;49.980;8.358;2022-12-10T17:05:59;-1.36;86.12
72277;SHT30;61204;49.980;8.358;2022-12-10T17:08:29;-1.40;86.27
72277;SHT30;61204;49.980;8.358;2022-12-10T17:10:56;-1.43;86.56
72277;SHT30;61204;49.980;8.358;2022-12-10T17:13:43;-1.51;86.78
72277;SHT30;61204;49.980;8.358;2022-12-10T17:16:18;-1.57;87.08
72277;SHT30;61204;49.980;8.358;2022-12-10T17:18:46;-1.61;86.97
72277;SHT30;61204;49.980;8.358;2022-12-10T17:21:11;-1.67;87.49
72277;SHT30;61204;49.980;8.358;2022-12-10T17:23:37;-1.70;87.68
72277;SHT30;61204;49.980;8.358;2022-12-10T17:26:03;-1.75;88.03
72277;SHT30;61204;49.980;8.358;2022-12-10T17:28:30;-1.79;87.96
72277;SHT30;61204;49.980;8.358;2022-12-10T17:30:57;-1.92;88.23
72277;SHT30;61204;49.980;8.358;2022-12-10T17:33:23;-1.96;88.29
72277;SHT30;61204;49.980;8.358;2022-12-10T17:35:52;-2.03;88.40
72277;SHT30;61204;49.980;8.358;2022-12-10T17:38:23;-2.12;88.57
72277;SHT30;61204;49.980;8.358;2022-12-10T17:40:51;-2.12;89.16
72277;SHT30;61204;49.980;8.358;2022-12-10T17:43:18;-2.12;88.96
72277;SHT30;61204;49.980;8.358;2022-12-10T17:45:44;-2.06;89.52
72277;SHT30;61204;49.980;8.358;2022-12-10T17:48:16;-2.07;89.47
72277;SHT30;61204;49.980;8.358;2022-12-10T17:50:44;-1.99;89.42